Aviation Digital Data Service (ADDS)

Output produced by METARs form (0137 UTC 23 November 2017)
found at http://www.aviationweather.gov/adds/metars/
 
TAF FEFF 222300Z 2300/2406 VRB03KT 8000 FEW010 
     TEMPO CAVOK 
     BECMG 2304/2306 4000 BR SCT004 
     FM231000 26006KT 9999 SCT023 
     TEMPO 2312/2315 TS FEW040CB